createdAt,value
2022-12-26T00:00:07.425Z,93.22
2022-12-26T00:03:09.693Z,92.80
2022-12-26T00:06:13.484Z,93.86
2022-12-26T00:09:25.113Z,93.80
2022-12-26T00:12:27.820Z,93.57
2022-12-26T00:15:30.413Z,93.67
2022-12-26T00:18:33.130Z,93.63
2022-12-26T00:21:38.056Z,92.70
2022-12-26T00:24:40.537Z,92.54
2022-12-26T00:27:42.955Z,92.74
2022-12-26T00:30:45.286Z,92.35
2022-12-26T00:33:48.053Z,92.41
2022-12-26T00:36:50.359Z,92.10
2022-12-26T00:39:52.748Z,92.10
2022-12-26T00:42:55.063Z,91.99
2022-12-26T00:45:57.609Z,92.49
2022-12-26T00:49:00.440Z,92.77
2022-12-26T00:52:02.750Z,92.68
2022-12-26T00:55:05.276Z,92.97
2022-12-26T00:58:07.606Z,94.10
2022-12-26T01:01:12.480Z,94.29
2022-12-26T01:04:14.987Z,94.81
2022-12-26T01:07:17.328Z,95.92
2022-12-26T01:10:19.638Z,95.37
2022-12-26T01:13:22.179Z,95.44
2022-12-26T01:16:24.510Z,95.29
2022-12-26T01:19:26.855Z,95.87
2022-12-26T01:22:29.114Z,95.16
2022-12-26T01:25:31.404Z,94.98
2022-12-26T01:28:33.672Z,95.40
2022-12-26T01:31:36.067Z,95.71
2022-12-26T01:34:38.413Z,95.65
2022-12-26T01:37:40.769Z,95.01
2022-12-26T01:40:43.606Z,95.66
2022-12-26T01:44:06.227Z,94.67
2022-12-26T01:47:08.474Z,95.04
2022-12-26T01:50:15.398Z,93.23
2022-12-26T01:53:17.804Z,94.41
2022-12-26T01:56:22.555Z,95.02
2022-12-26T01:59:26.089Z,93.92
2022-12-26T02:02:29.340Z,95.09
2022-12-26T02:05:35.090Z,95.28
2022-12-26T02:08:37.488Z,95.02
2022-12-26T02:11:41.582Z,94.87
2022-12-26T02:14:46.397Z,92.81
2022-12-26T02:17:48.682Z,94.01
2022-12-26T02:21:09.567Z,94.13
2022-12-26T02:24:30.457Z,92.36
2022-12-26T02:27:42.713Z,92.10
2022-12-26T02:30:46.987Z,91.99
2022-12-26T02:33:52.911Z,92.66
2022-12-26T02:36:55.157Z,93.11
2022-12-26T02:40:02.723Z,93.14
2022-12-26T02:43:23.443Z,93.51
2022-12-26T02:46:50.299Z,93.89
2022-12-26T02:50:16.969Z,94.15
2022-12-26T02:53:38.146Z,93.50
2022-12-26T02:57:02.162Z,93.71
2022-12-26T03:00:26.247Z,94.55
2022-12-26T03:03:47.501Z,95.17
2022-12-26T03:07:11.921Z,93.71
2022-12-26T03:10:40.109Z,95.29
2022-12-26T03:13:42.371Z,94.79
2022-12-26T03:17:04.045Z,94.73
2022-12-26T03:20:09.041Z,94.71
2022-12-26T03:23:15.637Z,93.77
2022-12-26T03:26:40.771Z,94.60
2022-12-26T03:30:01.938Z,95.09
2022-12-26T03:33:04.272Z,94.55
2022-12-26T03:36:10.924Z,93.41
2022-12-26T03:39:13.300Z,93.82
2022-12-26T03:42:46.659Z,95.16
2022-12-26T03:46:07.727Z,95.16
2022-12-26T03:49:35.585Z,95.56
2022-12-26T03:53:06.478Z,94.05
2022-12-26T03:56:32.588Z,92.82
2022-12-26T04:00:01.762Z,94.38
2022-12-26T04:03:33.060Z,94.69
2022-12-26T04:07:17.471Z,95.10
2022-12-26T04:10:52.559Z,94.81
2022-12-26T04:14:15.092Z,94.45
2022-12-26T04:17:51.625Z,93.20
2022-12-26T04:20:54.147Z,93.18
2022-12-26T04:24:15.248Z,91.97
2022-12-26T04:27:37.005Z,94.77
2022-12-26T04:30:58.647Z,92.45
2022-12-26T04:34:20.341Z,94.33
2022-12-26T04:37:42.486Z,95.59
2022-12-26T04:41:03.993Z,94.09
2022-12-26T04:44:15.318Z,95.00
2022-12-26T04:47:17.666Z,95.48
2022-12-26T04:50:19.978Z,96.42
2022-12-26T04:53:22.257Z,94.89
2022-12-26T04:56:24.580Z,95.20
2022-12-26T04:59:26.990Z,95.63
2022-12-26T05:02:48.252Z,96.74
2022-12-26T05:06:10.044Z,95.60
2022-12-26T05:09:31.107Z,96.14
2022-12-26T05:12:33.472Z,95.78
2022-12-26T05:15:56.506Z,96.79
2022-12-26T05:19:17.504Z,94.85
2022-12-26T05:22:38.490Z,96.79
2022-12-26T05:25:59.889Z,96.48
2022-12-26T05:29:04.023Z,95.79
2022-12-26T05:32:06.647Z,96.66
2022-12-26T05:35:09.174Z,96.28
2022-12-26T05:38:11.998Z,96.38
2022-12-26T05:41:14.626Z,96.14
2022-12-26T05:44:16.869Z,96.84
2022-12-26T05:47:20.261Z,95.73
2022-12-26T05:50:22.555Z,95.96
2022-12-26T05:53:24.822Z,96.31
2022-12-26T05:56:27.161Z,96.12
2022-12-26T05:59:29.839Z,93.96
2022-12-26T06:02:32.240Z,96.12
2022-12-26T06:05:34.727Z,96.13
2022-12-26T06:08:37.157Z,95.74
2022-12-26T06:11:43.775Z,95.40
2022-12-26T06:14:50.798Z,95.55
2022-12-26T06:17:54.366Z,94.66
2022-12-26T06:20:56.789Z,95.37
2022-12-26T06:23:59.334Z,95.01
2022-12-26T06:27:02.021Z,95.24
2022-12-26T06:30:04.491Z,95.12
2022-12-26T06:33:06.972Z,95.80
2022-12-26T06:36:13.782Z,97.57
2022-12-26T06:39:19.831Z,98.62
2022-12-26T06:42:22.289Z,97.52
2022-12-26T06:45:24.735Z,96.88
2022-12-26T06:48:27.265Z,95.67
2022-12-26T06:51:29.903Z,96.99
2022-12-26T06:54:32.362Z,95.86
2022-12-26T06:57:34.712Z,95.75
2022-12-26T07:00:37.239Z,94.18
2022-12-26T07:03:43.308Z,94.18
2022-12-26T07:06:49.014Z,94.42
2022-12-26T07:09:51.418Z,95.42
2022-12-26T07:12:53.765Z,95.39
2022-12-26T07:15:59.252Z,97.88
2022-12-26T07:19:01.779Z,98.06
2022-12-26T07:22:04.074Z,97.27
2022-12-26T07:25:06.690Z,98.02
2022-12-26T07:28:09.210Z,99.93
2022-12-26T07:31:18.461Z,98.71
2022-12-26T07:34:24.000Z,98.11
2022-12-26T07:37:28.857Z,99.06
2022-12-26T07:40:31.783Z,98.91
2022-12-26T07:43:34.957Z,99.64
2022-12-26T07:46:37.667Z,100.00
2022-12-26T07:49:40.593Z,100.00
2022-12-26T07:52:43.176Z,100.00
2022-12-26T07:55:45.920Z,100.00
2022-12-26T07:58:49.084Z,100.00
2022-12-26T08:01:52.038Z,100.00
2022-12-26T08:04:55.301Z,100.00
2022-12-26T08:07:58.743Z,100.00
2022-12-26T08:11:02.374Z,100.00
2022-12-26T08:14:05.092Z,100.00
2022-12-26T08:17:08.088Z,100.00
2022-12-26T08:20:10.811Z,100.00
2022-12-26T08:23:14.769Z,100.00
2022-12-26T08:26:22.987Z,100.00
2022-12-26T08:29:25.633Z,100.00
2022-12-26T08:32:27.970Z,100.00
2022-12-26T08:35:30.600Z,100.00
2022-12-26T08:38:35.772Z,100.00
2022-12-26T08:41:39.038Z,100.00
2022-12-26T08:44:41.515Z,100.00
2022-12-26T08:47:44.196Z,100.00
2022-12-26T08:50:47.293Z,99.45
2022-12-26T08:53:50.988Z,98.80
2022-12-26T08:56:53.926Z,98.53
2022-12-26T08:59:56.348Z,97.78
2022-12-26T09:02:58.951Z,99.25
2022-12-26T09:06:05.880Z,99.43
2022-12-26T09:09:11.502Z,98.74
2022-12-26T09:12:15.700Z,97.91
2022-12-26T09:15:18.593Z,99.13
2022-12-26T09:18:21.304Z,100.00
2022-12-26T09:21:23.848Z,100.00
2022-12-26T09:24:26.232Z,100.00
2022-12-26T09:27:29.147Z,99.36
2022-12-26T09:30:31.647Z,98.58
2022-12-26T09:33:37.980Z,100.00
2022-12-26T09:36:40.602Z,100.00
2022-12-26T09:39:43.913Z,99.70
2022-12-26T09:42:56.164Z,100.00
2022-12-26T09:46:06.824Z,100.00
2022-12-26T09:49:09.987Z,100.00
2022-12-26T09:52:15.112Z,100.00
2022-12-26T09:55:36.871Z,100.00
2022-12-26T09:58:52.551Z,100.00
2022-12-26T10:01:55.379Z,100.00
2022-12-26T10:04:58.961Z,100.00
2022-12-26T10:08:04.374Z,100.00
2022-12-26T10:11:08.489Z,100.00
2022-12-26T10:14:22.120Z,100.00
2022-12-26T10:17:40.973Z,100.00
2022-12-26T10:21:02.204Z,98.54
2022-12-26T10:24:18.381Z,98.81
2022-12-26T10:27:21.017Z,98.83
2022-12-26T10:30:28.440Z,97.60
2022-12-26T10:33:34.886Z,95.43
2022-12-26T10:36:40.172Z,95.80
2022-12-26T10:39:49.343Z,94.42
2022-12-26T10:42:56.419Z,94.21
2022-12-26T10:46:05.355Z,94.36
2022-12-26T10:49:12.175Z,95.24
2022-12-26T10:52:16.274Z,93.68
2022-12-26T10:55:28.178Z,93.46
2022-12-26T10:58:34.914Z,92.70
2022-12-26T11:01:38.643Z,92.17
2022-12-26T11:05:13.227Z,92.93
2022-12-26T11:08:08.033Z,93.20
2022-12-26T11:11:13.402Z,92.65
2022-12-26T11:14:42.702Z,93.93
2022-12-26T11:17:45.896Z,94.31
2022-12-26T11:20:50.102Z,94.78
2022-12-26T11:23:53.457Z,94.05
2022-12-26T11:26:56.526Z,93.60
2022-12-26T11:30:15.386Z,93.59
2022-12-26T11:33:31.279Z,93.58
2022-12-26T11:36:34.733Z,93.21
2022-12-26T11:39:38.213Z,93.18
2022-12-26T11:42:41.783Z,92.62
2022-12-26T11:45:45.004Z,92.58
2022-12-26T11:48:51.892Z,94.50
2022-12-26T11:51:59.317Z,93.99
2022-12-26T11:55:22.791Z,94.46
2022-12-26T11:58:27.571Z,93.92
2022-12-26T12:01:30.168Z,94.40
2022-12-26T12:04:33.877Z,94.27
2022-12-26T12:07:42.884Z,94.19
2022-12-26T12:10:58.267Z,95.18
2022-12-26T12:14:07.045Z,94.69
2022-12-26T12:17:26.810Z,94.79
2022-12-26T12:20:35.723Z,95.00
2022-12-26T12:23:58.624Z,95.45
2022-12-26T12:27:05.454Z,94.92
2022-12-26T12:30:15.782Z,94.67
2022-12-26T12:33:31.218Z,93.86
2022-12-26T12:36:37.258Z,93.41
2022-12-26T12:39:48.196Z,93.45
2022-12-26T12:43:13.706Z,94.01
2022-12-26T12:46:40.777Z,95.19
2022-12-26T12:49:47.152Z,95.15
2022-12-26T12:52:52.690Z,95.04
2022-12-26T12:55:55.960Z,94.34
2022-12-26T12:59:05.799Z,94.44
2022-12-26T13:02:20.299Z,94.12
2022-12-26T13:05:44.099Z,94.47
2022-12-26T13:08:56.741Z,94.77
2022-12-26T13:12:01.598Z,95.48
2022-12-26T13:15:28.391Z,94.73
2022-12-26T13:18:32.528Z,94.52
2022-12-26T13:21:36.632Z,94.76
2022-12-26T13:24:40.895Z,94.63
2022-12-26T13:27:43.805Z,94.23
2022-12-26T13:30:46.824Z,94.02
2022-12-26T13:33:49.515Z,94.64
2022-12-26T13:36:53.568Z,94.26
2022-12-26T13:39:56.450Z,94.44
2022-12-26T13:43:28.753Z,95.84
2022-12-26T13:46:51.470Z,96.02
2022-12-26T13:49:54.993Z,94.88
2022-12-26T13:52:57.524Z,95.50
2022-12-26T13:56:39.658Z,96.81
2022-12-26T13:59:48.093Z,97.40
2022-12-26T14:03:16.668Z,98.03
2022-12-26T14:06:16.167Z,99.23
2022-12-26T14:09:28.190Z,99.30
2022-12-26T14:12:34.422Z,98.90
2022-12-26T14:15:52.348Z,99.13
2022-12-26T14:19:01.215Z,99.07
2022-12-26T14:22:03.486Z,99.57
2022-12-26T14:25:23.716Z,100.00
2022-12-26T14:28:44.829Z,100.00
2022-12-26T14:31:47.454Z,100.00
2022-12-26T14:35:02.215Z,99.34
2022-12-26T14:38:24.080Z,99.65
2022-12-26T14:41:45.373Z,100.00
2022-12-26T14:44:48.300Z,100.00
2022-12-26T14:47:51.320Z,100.00
2022-12-26T14:50:58.012Z,100.00
2022-12-26T14:54:29.960Z,100.00
2022-12-26T14:57:43.230Z,100.00
2022-12-26T15:00:46.126Z,100.00
2022-12-26T15:04:05.569Z,100.00
2022-12-26T15:07:28.968Z,100.00
2022-12-26T15:10:35.248Z,100.00
2022-12-26T15:14:11.303Z,100.00
2022-12-26T15:17:32.766Z,100.00
2022-12-26T15:20:45.818Z,100.00
2022-12-26T15:24:08.761Z,100.00
2022-12-26T15:27:30.586Z,100.00
2022-12-26T15:30:59.577Z,100.00
2022-12-26T15:34:21.452Z,100.00
2022-12-26T15:37:24.223Z,100.00
2022-12-26T15:40:46.537Z,100.00
2022-12-26T15:43:49.040Z,100.00
2022-12-26T15:47:10.372Z,100.00
2022-12-26T15:50:33.074Z,100.00
2022-12-26T15:53:41.802Z,100.00
2022-12-26T15:56:53.114Z,99.67
2022-12-26T16:00:00.206Z,98.76
2022-12-26T16:03:03.088Z,99.23
2022-12-26T16:06:09.037Z,99.87
2022-12-26T16:09:31.891Z,100.00
2022-12-26T16:12:40.394Z,100.00
2022-12-26T16:15:50.316Z,100.00
2022-12-26T16:18:52.777Z,99.88
2022-12-26T16:22:15.155Z,98.90
2022-12-26T16:25:22.023Z,99.04
2022-12-26T16:28:25.260Z,99.30
2022-12-26T16:31:29.079Z,99.71
2022-12-26T16:34:32.919Z,100.00
2022-12-26T16:37:36.118Z,100.00
2022-12-26T16:40:42.109Z,100.00
2022-12-26T16:43:44.916Z,100.00
2022-12-26T16:46:47.700Z,100.00
2022-12-26T16:49:50.274Z,100.00
2022-12-26T16:53:13.369Z,100.00
2022-12-26T16:56:25.076Z,100.00
2022-12-26T16:59:29.176Z,100.00
2022-12-26T17:02:32.885Z,100.00
2022-12-26T17:05:36.843Z,100.00
2022-12-26T17:08:46.425Z,100.00
2022-12-26T17:11:56.605Z,100.00
2022-12-26T17:14:59.243Z,100.00
2022-12-26T17:18:21.689Z,100.00
2022-12-26T17:21:31.414Z,100.00
2022-12-26T17:24:34.212Z,100.00
2022-12-26T17:27:36.830Z,100.00
2022-12-26T17:30:40.793Z,100.00
2022-12-26T17:33:47.908Z,100.00
2022-12-26T17:37:21.246Z,100.00
2022-12-26T17:40:14.450Z,100.00
2022-12-26T17:43:25.510Z,100.00
2022-12-26T17:46:28.449Z,100.00
2022-12-26T17:49:31.712Z,100.00
2022-12-26T17:52:35.025Z,100.00
2022-12-26T17:55:38.182Z,100.00
2022-12-26T17:58:41.287Z,100.00
2022-12-26T18:01:44.409Z,100.00
2022-12-26T18:04:47.688Z,100.00
2022-12-26T18:07:51.406Z,100.00
2022-12-26T18:10:54.318Z,100.00
2022-12-26T18:13:57.013Z,100.00
2022-12-26T18:17:03.199Z,100.00
2022-12-26T18:20:06.347Z,100.00
2022-12-26T18:23:11.878Z,100.00
2022-12-26T18:26:24.769Z,100.00
2022-12-26T18:29:28.868Z,100.00
2022-12-26T18:32:34.516Z,99.70
2022-12-26T18:35:39.911Z,100.00
2022-12-26T18:38:43.435Z,100.00
2022-12-26T18:41:48.617Z,100.00
2022-12-26T18:44:51.283Z,100.00
2022-12-26T18:47:54.101Z,100.00
2022-12-26T18:50:57.577Z,100.00
2022-12-26T18:54:00.566Z,100.00
2022-12-26T18:57:05.387Z,100.00
2022-12-26T19:00:09.159Z,100.00
2022-12-26T19:03:12.884Z,100.00
2022-12-26T19:06:17.195Z,100.00
2022-12-26T19:09:19.814Z,100.00
2022-12-26T19:12:22.945Z,100.00
2022-12-26T19:15:25.646Z,100.00
2022-12-26T19:18:30.032Z,100.00
2022-12-26T19:21:33.718Z,100.00
2022-12-26T19:24:36.856Z,100.00
2022-12-26T19:27:39.947Z,100.00
2022-12-26T19:30:43.087Z,100.00
2022-12-26T19:33:45.695Z,100.00
2022-12-26T19:36:48.847Z,100.00
2022-12-26T19:39:52.213Z,100.00
2022-12-26T19:42:55.667Z,100.00
2022-12-26T19:46:01.033Z,100.00
2022-12-26T19:49:04.455Z,100.00
2022-12-26T19:52:07.620Z,100.00
2022-12-26T19:55:14.993Z,100.00
2022-12-26T19:58:18.288Z,100.00
2022-12-26T20:01:22.479Z,100.00
2022-12-26T20:04:29.087Z,100.00
2022-12-26T20:07:31.914Z,100.00
2022-12-26T20:10:34.843Z,100.00
2022-12-26T20:13:40.091Z,100.00
2022-12-26T20:20:06.618Z,100.00
2022-12-26T20:23:09.281Z,100.00
2022-12-26T20:26:13.246Z,100.00
2022-12-26T20:29:16.254Z,100.00
2022-12-26T20:32:19.475Z,100.00
2022-12-26T20:35:21.895Z,100.00
2022-12-26T20:38:25.308Z,100.00
2022-12-26T20:41:28.463Z,100.00
2022-12-26T20:44:32.521Z,100.00
2022-12-26T20:47:35.890Z,100.00
2022-12-26T20:50:39.031Z,100.00
2022-12-26T20:53:42.233Z,100.00
2022-12-26T20:56:45.644Z,100.00
2022-12-26T20:59:48.608Z,100.00
2022-12-26T21:02:53.843Z,100.00
2022-12-26T21:06:05.623Z,100.00
2022-12-26T21:09:08.517Z,100.00
2022-12-26T21:12:11.425Z,100.00
2022-12-26T21:15:14.377Z,100.00
2022-12-26T21:18:17.245Z,100.00
2022-12-26T21:21:22.417Z,100.00
2022-12-26T21:24:26.819Z,100.00
2022-12-26T21:27:30.471Z,100.00
2022-12-26T21:30:33.177Z,100.00
2022-12-26T21:33:42.441Z,100.00
2022-12-26T21:37:07.033Z,100.00
2022-12-26T21:40:09.780Z,100.00
2022-12-26T21:43:12.798Z,100.00
2022-12-26T21:46:16.996Z,100.00
2022-12-26T21:49:19.557Z,100.00
2022-12-26T21:52:22.342Z,100.00
2022-12-26T21:55:27.935Z,100.00
2022-12-26T21:58:30.671Z,100.00
2022-12-26T22:01:33.301Z,100.00
2022-12-26T22:04:35.762Z,100.00
2022-12-26T22:07:38.135Z,100.00
2022-12-26T22:11:01.872Z,100.00
2022-12-26T22:14:04.218Z,100.00
2022-12-26T22:17:06.612Z,100.00
2022-12-26T22:20:09.215Z,100.00
2022-12-26T22:23:12.225Z,100.00
2022-12-26T22:26:15.268Z,100.00
2022-12-26T22:29:17.709Z,100.00
2022-12-26T22:32:20.189Z,100.00
2022-12-26T22:35:22.811Z,100.00
2022-12-26T22:38:25.846Z,100.00
2022-12-26T22:41:28.435Z,100.00
2022-12-26T22:44:31.056Z,100.00
2022-12-26T22:47:33.481Z,100.00
2022-12-26T22:50:36.005Z,100.00
2022-12-26T22:53:38.645Z,100.00
2022-12-26T22:56:41.154Z,100.00
2022-12-26T23:00:07.755Z,100.00
2022-12-26T23:03:06.419Z,100.00
2022-12-26T23:06:25.993Z,100.00
2022-12-26T23:09:28.913Z,100.00
2022-12-26T23:12:43.737Z,100.00
2022-12-26T23:15:52.373Z,100.00
2022-12-26T23:19:15.328Z,100.00
2022-12-26T23:22:17.962Z,100.00
2022-12-26T23:25:20.702Z,100.00
2022-12-26T23:28:41.683Z,100.00
2022-12-26T23:31:44.421Z,100.00
2022-12-26T23:34:46.855Z,100.00
2022-12-26T23:37:49.684Z,100.00
2022-12-26T23:40:54.856Z,100.00
2022-12-26T23:43:57.651Z,100.00
2022-12-26T23:47:00.476Z,100.00
2022-12-26T23:50:03.354Z,100.00
2022-12-26T23:53:06.160Z,100.00
2022-12-26T23:56:09.127Z,100.00
2022-12-26T23:59:11.522Z,100.00
